createdAt,value
2019-02-05T00:01:45.705Z,1.97
2019-02-05T00:04:16.751Z,1.95
2019-02-05T00:06:50.434Z,1.96
2019-02-05T00:09:20.928Z,1.97
2019-02-05T00:11:52.704Z,1.94
2019-02-05T00:14:23.601Z,1.94
2019-02-05T00:16:54.051Z,1.96
2019-02-05T00:19:24.848Z,1.95
2019-02-05T00:21:55.462Z,2.01
2019-02-05T00:24:25.925Z,2.04
2019-02-05T00:26:56.348Z,2.05
2019-02-05T00:29:26.806Z,2.08
2019-02-05T00:31:57.165Z,2.08
2019-02-05T00:34:27.610Z,2.16
2019-02-05T00:37:01.373Z,2.17
2019-02-05T00:39:31.736Z,2.18
2019-02-05T00:42:02.172Z,2.23
2019-02-05T00:44:35.488Z,2.23
2019-02-05T00:47:06.071Z,2.25
2019-02-05T00:49:36.424Z,2.28
2019-02-05T00:52:08.954Z,2.30
2019-02-05T00:54:40.330Z,2.29
2019-02-05T00:57:13.776Z,2.29
2019-02-05T00:59:45.254Z,2.26
2019-02-05T01:02:18.021Z,2.27
2019-02-05T01:04:52.888Z,2.24
2019-02-05T01:07:23.371Z,2.20
2019-02-05T01:09:53.747Z,2.21
2019-02-05T01:12:24.122Z,2.22
2019-02-05T01:14:54.514Z,2.18
2019-02-05T01:17:25.138Z,2.18
2019-02-05T01:19:55.674Z,2.17
2019-02-05T01:22:26.263Z,2.14
2019-02-05T01:24:56.634Z,2.13
2019-02-05T01:27:27.045Z,2.12
2019-02-05T01:29:57.566Z,2.12
2019-02-05T01:32:28.953Z,2.10
2019-02-05T01:34:59.366Z,2.10
2019-02-05T01:37:29.891Z,2.10
2019-02-05T01:40:00.518Z,2.11
2019-02-05T01:42:30.910Z,2.11
2019-02-05T01:45:01.596Z,2.15
2019-02-05T01:47:34.213Z,2.14
2019-02-05T01:50:07.459Z,2.15
2019-02-05T01:52:38.110Z,2.13
2019-02-05T01:55:09.118Z,2.13
2019-02-05T01:57:39.741Z,2.12
2019-02-05T02:00:18.674Z,2.14
2019-02-05T02:02:53.243Z,2.16
2019-02-05T02:05:23.738Z,2.16
2019-02-05T02:07:55.367Z,2.16
2019-02-05T02:10:26.870Z,2.11
2019-02-05T02:12:58.755Z,2.08
2019-02-05T02:15:42.788Z,2.16
2019-02-05T02:18:25.201Z,2.12
2019-02-05T02:20:57.356Z,2.10
2019-02-05T02:23:27.854Z,2.08
2019-02-05T02:25:58.588Z,2.06
2019-02-05T02:28:29.038Z,2.01
2019-02-05T02:31:00.057Z,2.00
2019-02-05T02:33:33.505Z,2.00
2019-02-05T02:36:03.972Z,2.00
2019-02-05T02:38:36.450Z,2.00
2019-02-05T02:41:07.153Z,2.00
2019-02-05T02:43:42.166Z,1.95
2019-02-05T02:46:12.590Z,1.94
2019-02-05T02:48:43.059Z,1.94
2019-02-05T02:51:13.900Z,1.91
2019-02-05T02:53:47.389Z,1.89
2019-02-05T02:56:17.966Z,1.90
2019-02-05T02:58:50.020Z,1.90
2019-02-05T03:01:20.443Z,1.90
2019-02-05T03:03:52.829Z,1.91
2019-02-05T03:06:23.192Z,1.91
2019-02-05T03:08:56.639Z,1.89
2019-02-05T03:11:27.434Z,1.89
2019-02-05T03:13:59.310Z,1.91
2019-02-05T03:16:32.452Z,1.90
2019-02-05T03:19:04.489Z,1.87
2019-02-05T03:21:34.905Z,1.84
2019-02-05T03:24:05.578Z,1.82
2019-02-05T03:26:35.994Z,1.86
2019-02-05T03:29:06.381Z,1.82
2019-02-05T03:31:36.710Z,1.83
2019-02-05T03:34:07.948Z,1.84
2019-02-05T03:36:38.385Z,1.82
2019-02-05T03:39:09.292Z,1.82
2019-02-05T03:41:39.952Z,1.81
2019-02-05T03:44:10.322Z,1.81
2019-02-05T03:46:40.728Z,1.80
2019-02-05T03:49:11.182Z,1.78
2019-02-05T03:52:16.412Z,1.76
2019-02-05T03:55:10.707Z,1.74
2019-02-05T03:58:11.821Z,1.75
2019-02-05T04:01:02.992Z,1.76
2019-02-05T04:04:09.631Z,1.71
2019-02-05T04:07:44.855Z,1.65
2019-02-05T04:11:03.913Z,1.63
2019-02-05T04:14:11.217Z,1.64
2019-02-05T04:17:12.204Z,1.67
2019-02-05T04:19:57.489Z,1.65
2019-02-05T04:22:48.807Z,1.67
2019-02-05T04:26:05.309Z,1.67
2019-02-05T04:29:13.528Z,1.72
2019-02-05T04:32:18.192Z,1.72
2019-02-05T04:35:26.819Z,1.68
2019-02-05T04:38:59.302Z,1.71
2019-02-05T04:42:28.579Z,1.72
2019-02-05T04:45:34.130Z,1.73
2019-02-05T04:48:33.775Z,1.73
2019-02-05T04:51:49.458Z,1.75
2019-02-05T04:54:35.957Z,1.76
2019-02-05T04:57:40.945Z,1.75
2019-02-05T05:00:48.046Z,1.78
2019-02-05T05:03:35.211Z,1.81
2019-02-05T05:06:37.206Z,1.81
2019-02-05T05:09:16.532Z,1.85
2019-02-05T05:11:46.923Z,1.86
2019-02-05T05:14:17.291Z,1.90
2019-02-05T05:16:47.672Z,1.91
2019-02-05T05:19:18.467Z,1.90
2019-02-05T05:21:48.880Z,1.89
2019-02-05T05:24:21.475Z,1.89
2019-02-05T05:26:52.088Z,1.90
2019-02-05T05:29:22.700Z,1.94
2019-02-05T05:31:53.299Z,1.96
2019-02-05T05:34:24.335Z,2.00
2019-02-05T05:36:53.100Z,2.01
2019-02-05T05:39:30.019Z,2.00
2019-02-05T05:42:03.317Z,1.97
2019-02-05T05:44:39.699Z,1.95
2019-02-05T05:47:10.105Z,1.96
2019-02-05T05:49:40.620Z,1.95
2019-02-05T05:52:10.984Z,1.95
2019-02-05T05:54:42.630Z,1.97
2019-02-05T05:57:12.989Z,1.97
2019-02-05T05:59:45.245Z,2.00
2019-02-05T06:02:16.224Z,2.00
2019-02-05T06:04:46.852Z,2.03
2019-02-05T06:07:17.282Z,2.01
2019-02-05T06:09:47.933Z,2.05
2019-02-05T06:12:18.423Z,2.08
2019-02-05T06:14:49.147Z,2.09
2019-02-05T06:17:19.638Z,2.10
2019-02-05T06:19:50.062Z,2.10
2019-02-05T06:22:20.492Z,2.11
2019-02-05T06:24:50.937Z,2.11
2019-02-05T06:27:22.138Z,2.07
2019-02-05T06:29:52.765Z,2.06
2019-02-05T06:32:23.191Z,2.08
2019-02-05T06:34:57.216Z,2.05
2019-02-05T06:37:27.635Z,2.00
2019-02-05T06:39:58.132Z,1.98
2019-02-05T06:42:28.925Z,1.99
2019-02-05T06:44:59.355Z,2.01
2019-02-05T06:47:46.375Z,2.00
2019-02-05T06:50:18.581Z,2.05
2019-02-05T06:52:49.401Z,2.08
2019-02-05T06:55:28.357Z,2.10
2019-02-05T06:58:10.733Z,2.10
2019-02-05T07:00:48.326Z,2.09
2019-02-05T07:03:30.534Z,2.11
2019-02-05T07:06:10.587Z,2.21
2019-02-05T07:08:43.559Z,2.18
2019-02-05T07:11:14.047Z,2.14
2019-02-05T07:13:44.883Z,2.12
2019-02-05T07:16:16.923Z,2.10
2019-02-05T07:18:50.482Z,2.09
2019-02-05T07:21:21.024Z,2.08
2019-02-05T07:23:51.608Z,2.08
2019-02-05T07:26:22.516Z,2.11
2019-02-05T07:28:58.940Z,2.12
2019-02-05T07:31:25.112Z,2.14
2019-02-05T07:33:57.047Z,2.17
2019-02-05T07:36:27.568Z,2.17
2019-02-05T07:38:58.161Z,2.19
2019-02-05T07:41:28.933Z,2.19
2019-02-05T07:43:59.462Z,2.18
2019-02-05T07:46:29.870Z,2.17
2019-02-05T07:49:00.501Z,2.17
2019-02-05T07:51:31.044Z,2.13
2019-02-05T07:54:01.505Z,2.14
2019-02-05T07:56:34.082Z,2.22
2019-02-05T07:59:10.559Z,2.22
2019-02-05T08:01:43.673Z,2.21
2019-02-05T08:04:14.169Z,2.21
2019-02-05T08:06:44.757Z,2.23
2019-02-05T08:09:15.263Z,2.26
2019-02-05T08:11:45.782Z,2.27
2019-02-05T08:14:16.263Z,2.31
2019-02-05T08:16:47.953Z,2.31
2019-02-05T08:19:18.781Z,2.31
2019-02-05T08:21:49.636Z,2.34
2019-02-05T08:24:20.564Z,2.37
2019-02-05T08:26:54.163Z,2.40
2019-02-05T08:29:24.652Z,2.47
2019-02-05T08:31:55.016Z,2.51
2019-02-05T08:34:25.461Z,2.47
2019-02-05T08:36:58.271Z,2.47
2019-02-05T08:39:31.760Z,2.52
2019-02-05T08:42:02.195Z,2.57
2019-02-05T08:44:34.952Z,2.58
2019-02-05T08:47:05.509Z,2.64
2019-02-05T08:49:36.024Z,2.64
2019-02-05T08:52:08.243Z,2.65
2019-02-05T08:54:41.525Z,2.65
2019-02-05T08:57:12.678Z,2.66
2019-02-05T08:59:43.171Z,2.64
2019-02-05T09:02:13.667Z,2.65
2019-02-05T09:04:44.156Z,2.67
2019-02-05T09:07:15.248Z,2.64
2019-02-05T09:09:48.415Z,2.55
2019-02-05T09:12:21.107Z,2.56
2019-02-05T09:14:51.684Z,2.51
2019-02-05T09:17:24.308Z,2.51
2019-02-05T09:19:57.418Z,2.54
2019-02-05T09:22:31.117Z,2.64
2019-02-05T09:25:01.649Z,2.66
2019-02-05T09:27:33.242Z,2.71
2019-02-05T09:30:03.990Z,2.72
2019-02-05T09:32:35.089Z,2.74
2019-02-05T09:35:06.510Z,2.79
2019-02-05T09:37:37.013Z,2.84
2019-02-05T09:40:09.941Z,2.89
2019-02-05T09:42:43.441Z,2.91
2019-02-05T09:45:17.148Z,2.92
2019-02-05T09:47:47.713Z,2.93
2019-02-05T09:50:18.575Z,2.97
2019-02-05T09:52:49.093Z,3.04
2019-02-05T09:55:20.210Z,3.04
2019-02-05T09:57:50.664Z,3.15
2019-02-05T10:00:27.852Z,3.15
2019-02-05T10:02:59.056Z,3.18
2019-02-05T10:05:31.019Z,3.18
2019-02-05T10:08:03.736Z,3.15
2019-02-05T10:10:34.334Z,3.17
2019-02-05T10:13:05.236Z,3.22
2019-02-05T10:15:37.012Z,3.17
2019-02-05T10:18:08.812Z,3.10
2019-02-05T10:20:39.460Z,3.12
2019-02-05T10:23:10.456Z,3.13
2019-02-05T10:25:40.877Z,3.13
2019-02-05T10:28:11.845Z,3.13
2019-02-05T10:30:44.408Z,3.13
2019-02-05T10:33:14.867Z,3.09
2019-02-05T10:35:46.027Z,3.09
2019-02-05T10:38:16.831Z,3.14
2019-02-05T10:40:48.467Z,3.16
2019-02-05T10:43:19.068Z,3.19
2019-02-05T10:45:50.201Z,3.20
2019-02-05T10:48:23.609Z,3.21
2019-02-05T10:50:54.736Z,3.18
2019-02-05T10:53:27.476Z,3.17
2019-02-05T10:55:58.588Z,3.17
2019-02-05T10:58:29.489Z,3.22
2019-02-05T11:01:00.050Z,3.26
2019-02-05T11:03:30.649Z,3.17
2019-02-05T11:06:02.903Z,3.11
2019-02-05T11:08:33.363Z,3.10
2019-02-05T11:11:06.962Z,3.11
2019-02-05T11:13:37.560Z,3.14
2019-02-05T11:16:08.018Z,3.12
2019-02-05T11:18:38.553Z,3.15
2019-02-05T11:21:09.176Z,3.18
2019-02-05T11:23:39.610Z,3.18
2019-02-05T11:26:10.252Z,3.18
2019-02-05T11:28:40.974Z,3.20
2019-02-05T11:31:11.426Z,3.22
2019-02-05T11:33:45.949Z,3.25
2019-02-05T11:36:16.574Z,3.21
2019-02-05T11:38:47.118Z,3.20
2019-02-05T11:41:18.020Z,3.14
2019-02-05T11:43:48.840Z,3.25
2019-02-05T11:46:19.273Z,3.23
2019-02-05T11:48:49.874Z,3.25
2019-02-05T11:51:20.526Z,3.20
2019-02-05T11:53:51.080Z,3.18
2019-02-05T11:56:21.897Z,3.26
2019-02-05T11:58:52.436Z,3.36
2019-02-05T12:01:25.870Z,3.37
2019-02-05T12:03:57.549Z,3.42
2019-02-05T12:06:31.124Z,3.47
2019-02-05T12:09:02.268Z,3.52
2019-02-05T12:11:32.892Z,3.50
2019-02-05T12:14:04.110Z,3.53
2019-02-05T12:16:34.741Z,3.57
2019-02-05T12:19:05.978Z,3.61
2019-02-05T12:21:36.444Z,3.65
2019-02-05T12:24:07.157Z,3.68
2019-02-05T12:26:37.808Z,3.71
2019-02-05T12:29:08.447Z,3.68
2019-02-05T12:31:41.366Z,3.70
2019-02-05T12:34:11.856Z,3.69
2019-02-05T12:36:42.494Z,3.67
2019-02-05T12:39:20.150Z,3.71
2019-02-05T12:41:53.601Z,3.71
2019-02-05T12:44:24.261Z,3.69
2019-02-05T12:46:54.872Z,3.69
2019-02-05T12:49:25.269Z,3.63
2019-02-05T12:51:56.209Z,3.65
2019-02-05T12:54:26.736Z,3.69
2019-02-05T12:56:57.200Z,3.66
2019-02-05T12:59:27.709Z,3.63
2019-02-05T13:01:58.226Z,3.58
2019-02-05T13:04:28.819Z,3.57
2019-02-05T13:06:59.249Z,3.57
2019-02-05T13:09:29.774Z,3.67
2019-02-05T13:12:00.500Z,3.63
2019-02-05T13:14:31.340Z,3.67
2019-02-05T13:17:01.830Z,3.71
2019-02-05T13:19:32.744Z,3.74
2019-02-05T13:22:03.130Z,3.71
2019-02-05T13:24:33.617Z,3.77
2019-02-05T13:27:04.409Z,3.62
2019-02-05T13:29:34.710Z,3.62
2019-02-05T13:32:12.069Z,3.71
2019-02-05T13:34:42.655Z,3.76
2019-02-05T13:37:13.232Z,3.82
2019-02-05T13:39:43.712Z,3.82
2019-02-05T13:42:15.664Z,3.85
2019-02-05T13:44:47.007Z,3.91
2019-02-05T13:47:17.510Z,3.92
2019-02-05T13:49:48.286Z,3.91
2019-02-05T13:52:18.902Z,3.99
2019-02-05T13:54:49.349Z,3.91
2019-02-05T13:57:22.872Z,3.82
2019-02-05T13:59:53.393Z,3.80
2019-02-05T14:02:26.758Z,3.86
2019-02-05T14:04:57.159Z,3.91
2019-02-05T14:07:27.841Z,3.94
2019-02-05T14:09:58.257Z,3.96
2019-02-05T14:12:28.738Z,3.97
2019-02-05T14:15:00.257Z,4.04
2019-02-05T14:17:30.890Z,4.04
2019-02-05T14:20:01.326Z,4.02
2019-02-05T14:22:32.276Z,4.08
2019-02-05T14:25:02.935Z,4.11
2019-02-05T14:27:33.641Z,4.17
2019-02-05T14:30:04.799Z,4.21
2019-02-05T14:32:39.785Z,4.19
2019-02-05T14:35:10.505Z,4.12
2019-02-05T14:37:41.339Z,4.07
2019-02-05T14:40:13.923Z,4.07
2019-02-05T14:42:44.837Z,4.12
2019-02-05T14:45:15.557Z,4.10
2019-02-05T14:47:46.015Z,4.09
2019-02-05T14:50:25.605Z,4.11
2019-02-05T14:52:56.379Z,4.14
2019-02-05T14:55:33.418Z,4.18
2019-02-05T14:58:03.952Z,4.22
2019-02-05T15:00:34.880Z,4.21
2019-02-05T15:03:07.426Z,4.20
2019-02-05T15:05:38.194Z,4.22
2019-02-05T15:08:08.863Z,4.19
2019-02-05T15:10:39.498Z,4.14
2019-02-05T15:13:09.908Z,4.14
2019-02-05T15:15:41.250Z,4.22
2019-02-05T15:18:15.529Z,4.30
2019-02-05T15:20:47.540Z,4.23
2019-02-05T15:23:23.230Z,4.21
2019-02-05T15:25:54.146Z,4.22
2019-02-05T15:28:24.696Z,4.23
2019-02-05T15:30:55.164Z,4.25
2019-02-05T15:33:47.613Z,4.26
2019-02-05T15:36:23.737Z,4.30
2019-02-05T15:38:54.706Z,4.33
2019-02-05T15:41:27.477Z,4.27
2019-02-05T15:44:00.606Z,4.24
2019-02-05T15:46:30.188Z,4.19
2019-02-05T15:49:00.683Z,4.14
2019-02-05T15:51:31.139Z,4.10
2019-02-05T15:54:01.671Z,4.02
2019-02-05T15:56:32.161Z,3.96
2019-02-05T15:59:02.624Z,3.95
2019-02-05T16:01:32.985Z,4.09
2019-02-05T16:04:03.368Z,4.02
2019-02-05T16:06:34.800Z,3.98
2019-02-05T16:09:08.840Z,3.96
2019-02-05T16:11:41.098Z,3.93
2019-02-05T16:14:11.677Z,3.93
2019-02-05T16:16:44.292Z,3.98
2019-02-05T16:19:14.741Z,3.90
2019-02-05T16:21:45.216Z,3.85
2019-02-05T16:24:15.851Z,3.83
2019-02-05T16:26:47.585Z,3.80
2019-02-05T16:29:18.046Z,3.79
2019-02-05T16:31:48.533Z,3.81
2019-02-05T16:34:18.996Z,3.83
2019-02-05T16:36:49.620Z,3.75
2019-02-05T16:39:20.274Z,3.65
2019-02-05T16:41:50.961Z,3.59
2019-02-05T16:44:21.527Z,3.53
2019-02-05T16:46:51.980Z,3.50
2019-02-05T16:49:22.725Z,3.49
2019-02-05T16:51:53.141Z,3.46
2019-02-05T16:54:24.068Z,3.47
2019-02-05T16:56:54.735Z,3.44
2019-02-05T16:59:25.327Z,3.43
2019-02-05T17:01:57.283Z,3.42
2019-02-05T17:04:29.522Z,3.39
2019-02-05T17:07:00.346Z,3.36
2019-02-05T17:09:31.082Z,3.34
2019-02-05T17:12:01.686Z,3.31
2019-02-05T17:14:32.155Z,3.29
2019-02-05T17:17:02.787Z,3.26
2019-02-05T17:19:33.425Z,3.22
2019-02-05T17:22:04.348Z,3.22
2019-02-05T17:24:34.917Z,3.23
2019-02-05T17:27:05.626Z,3.23
2019-02-05T17:29:36.190Z,3.28
2019-02-05T17:32:07.860Z,3.26
2019-02-05T17:34:38.634Z,3.29
2019-02-05T17:37:09.221Z,3.26
2019-02-05T17:39:42.518Z,3.25
2019-02-05T17:42:13.197Z,3.27
2019-02-05T17:44:43.844Z,3.26
2019-02-05T17:47:14.704Z,3.25
2019-02-05T17:49:45.177Z,3.27
2019-02-05T17:52:15.762Z,3.22
2019-02-05T17:54:46.332Z,3.14
2019-02-05T17:57:16.992Z,3.07
2019-02-05T17:59:49.828Z,3.05
2019-02-05T18:02:20.923Z,3.19
2019-02-05T18:04:51.654Z,3.06
2019-02-05T18:07:24.319Z,3.02
2019-02-05T18:09:57.928Z,3.01
2019-02-05T18:12:28.481Z,3.01
2019-02-05T18:14:59.069Z,2.98
2019-02-05T18:17:29.889Z,2.96
2019-02-05T18:20:00.562Z,2.98
2019-02-05T18:22:31.432Z,3.00
2019-02-05T18:25:02.033Z,2.93
2019-02-05T18:27:34.893Z,2.92
2019-02-05T18:30:08.897Z,2.91
2019-02-05T18:32:39.459Z,2.88
2019-02-05T18:35:10.628Z,2.79
2019-02-05T18:37:41.252Z,2.75
2019-02-05T18:40:13.171Z,2.73
2019-02-05T18:42:44.137Z,2.72
2019-02-05T18:45:15.719Z,2.66
2019-02-05T18:47:48.666Z,2.62
2019-02-05T18:50:24.105Z,2.59
2019-02-05T18:52:55.029Z,2.52
2019-02-05T18:55:27.053Z,2.49
2019-02-05T18:58:08.414Z,2.48
2019-02-05T19:00:32.791Z,2.42
2019-02-05T19:03:14.513Z,2.39
2019-02-05T19:05:36.166Z,2.39
2019-02-05T19:08:07.436Z,2.38
2019-02-05T19:10:40.675Z,2.38
2019-02-05T19:13:11.778Z,2.33
2019-02-05T19:15:42.308Z,2.33
2019-02-05T19:18:13.017Z,2.31
2019-02-05T19:20:44.486Z,2.33
2019-02-05T19:23:15.500Z,2.34
2019-02-05T19:25:53.576Z,2.27
2019-02-05T19:28:32.583Z,2.25
2019-02-05T19:31:06.600Z,2.25
2019-02-05T19:33:37.496Z,2.21
2019-02-05T19:36:09.663Z,2.18
2019-02-05T19:38:42.442Z,2.14
2019-02-05T19:41:12.875Z,2.15
2019-02-05T19:43:43.423Z,2.08
2019-02-05T19:46:31.547Z,2.04
2019-02-05T19:49:21.410Z,1.98
2019-02-05T19:51:46.372Z,1.90
2019-02-05T19:54:18.165Z,1.85
2019-02-05T19:56:48.661Z,1.76
2019-02-05T19:59:19.444Z,1.69
2019-02-05T20:01:49.987Z,1.61
2019-02-05T20:04:20.404Z,1.52
2019-02-05T20:06:50.936Z,1.44
2019-02-05T20:09:21.546Z,1.35
2019-02-05T20:11:51.999Z,1.32
2019-02-05T20:14:22.590Z,1.25
2019-02-05T20:16:53.364Z,1.17
2019-02-05T20:19:24.988Z,1.11
2019-02-05T20:21:55.563Z,1.05
2019-02-05T20:24:26.367Z,1.04
2019-02-05T20:26:57.194Z,1.00
2019-02-05T20:29:28.271Z,0.94
2019-02-05T20:32:01.596Z,0.89
2019-02-05T20:34:32.067Z,0.85
2019-02-05T20:37:02.576Z,0.84
2019-02-05T20:39:33.150Z,0.82
2019-02-05T20:42:03.668Z,0.78
2019-02-05T20:44:34.504Z,0.74
2019-02-05T20:47:05.848Z,0.70
2019-02-05T20:49:36.457Z,0.68
2019-02-05T20:52:06.911Z,0.64
2019-02-05T20:54:37.916Z,0.61
2019-02-05T20:57:08.582Z,0.57
2019-02-05T20:59:39.112Z,0.54
2019-02-05T21:02:09.711Z,0.53
2019-02-05T21:04:48.091Z,0.51
2019-02-05T21:07:12.607Z,0.49
2019-02-05T21:09:46.121Z,0.48
2019-02-05T21:12:16.582Z,0.45
2019-02-05T21:14:47.144Z,0.42
2019-02-05T21:17:17.908Z,0.41
2019-02-05T21:19:48.395Z,0.38
2019-02-05T21:22:19.104Z,0.35
2019-02-05T21:24:49.776Z,0.37
2019-02-05T21:27:20.383Z,0.38
2019-02-05T21:29:50.875Z,0.36
2019-02-05T21:32:23.857Z,0.37
2019-02-05T21:34:54.594Z,0.34
2019-02-05T21:37:25.206Z,0.36
2019-02-05T21:40:02.483Z,0.39
2019-02-05T21:42:28.119Z,0.36
2019-02-05T21:44:58.885Z,0.35
2019-02-05T21:47:29.503Z,0.36
2019-02-05T21:49:59.963Z,0.30
2019-02-05T21:52:30.560Z,0.33
2019-02-05T21:55:01.159Z,0.36
2019-02-05T21:57:33.507Z,0.35
2019-02-05T22:00:04.930Z,0.36
2019-02-05T22:02:35.562Z,0.34
2019-02-05T22:05:08.250Z,0.30
2019-02-05T22:07:38.942Z,0.30
2019-02-05T22:10:10.496Z,0.27
2019-02-05T22:12:41.420Z,0.25
2019-02-05T22:15:13.025Z,0.26
2019-02-05T22:17:44.438Z,0.24
2019-02-05T22:20:19.719Z,0.25
2019-02-05T22:22:50.289Z,0.21
2019-02-05T22:25:25.487Z,0.21
2019-02-05T22:28:00.178Z,0.17
2019-02-05T22:30:32.563Z,0.13
2019-02-05T22:33:03.282Z,0.12
2019-02-05T22:35:33.957Z,0.12
2019-02-05T22:38:06.246Z,0.11
2019-02-05T22:40:39.075Z,0.07
2019-02-05T22:43:09.920Z,0.04
2019-02-05T22:45:41.189Z,0.03
2019-02-05T22:48:11.916Z,0.02
2019-02-05T22:50:43.345Z,0.02
2019-02-05T22:53:14.373Z,0.00
2019-02-05T22:55:44.921Z,-0.01
2019-02-05T22:58:15.562Z,0.00
2019-02-05T23:01:29.558Z,0.00
2019-02-05T23:04:11.321Z,-0.03
2019-02-05T23:06:57.317Z,-0.09
2019-02-05T23:09:39.478Z,-0.12
2019-02-05T23:12:20.468Z,-0.15
2019-02-05T23:14:57.961Z,-0.17
2019-02-05T23:17:28.787Z,-0.19
2019-02-05T23:19:59.403Z,-0.23
2019-02-05T23:22:30.020Z,-0.27
2019-02-05T23:25:03.774Z,-0.30
2019-02-05T23:27:35.197Z,-0.30
2019-02-05T23:30:11.897Z,-0.37
2019-02-05T23:32:42.597Z,-0.34
2019-02-05T23:35:13.139Z,-0.34
2019-02-05T23:37:43.959Z,-0.34
2019-02-05T23:40:16.403Z,-0.35
2019-02-05T23:42:47.569Z,-0.36
2019-02-05T23:45:18.394Z,-0.40
2019-02-05T23:47:49.180Z,-0.42
2019-02-05T23:50:19.967Z,-0.45
2019-02-05T23:52:50.432Z,-0.45
2019-02-05T23:55:23.744Z,-0.47
2019-02-05T23:57:54.277Z,-0.50
